createdAt,value
2023-02-18T00:07:01.892Z,98348.40
2023-02-18T00:17:26.436Z,98344.09
2023-02-18T00:27:50.694Z,98347.20
2023-02-18T00:38:15.265Z,98348.72
2023-02-18T00:48:39.548Z,98365.30
2023-02-18T00:59:04.815Z,98395.72
2023-02-18T01:09:29.111Z,98431.45
2023-02-18T01:19:53.269Z,98461.63
2023-02-18T01:30:18.807Z,98468.83
2023-02-18T01:40:50.770Z,98482.52
2023-02-18T01:51:18.898Z,98493.39
2023-02-18T02:01:45.816Z,98490.94
2023-02-18T02:12:27.960Z,98489.70
2023-02-18T02:23:28.772Z,98478.31
2023-02-18T02:34:24.421Z,98473.61
2023-02-18T02:44:55.586Z,98480.66
2023-02-18T02:55:20.369Z,98481.86
2023-02-18T03:06:01.982Z,98486.96
2023-02-18T03:16:35.196Z,98490.85
2023-02-18T03:27:05.199Z,98498.36
2023-02-18T03:37:32.001Z,98509.46
2023-02-18T03:47:56.237Z,98518.63
2023-02-18T03:58:20.427Z,98526.75
2023-02-18T04:08:45.126Z,98529.38
2023-02-18T04:19:09.570Z,98537.20
2023-02-18T04:29:33.731Z,98554.39
2023-02-18T04:39:57.919Z,98568.98
2023-02-18T04:50:22.935Z,98564.70
2023-02-18T05:00:47.637Z,98573.73
2023-02-18T05:11:12.160Z,98580.30
2023-02-18T05:21:36.328Z,98590.89
2023-02-18T05:32:00.624Z,98586.91
2023-02-18T05:42:24.946Z,98578.79
2023-02-18T05:52:49.300Z,98590.38
2023-02-18T06:03:13.523Z,98598.16
2023-02-18T06:13:37.806Z,98609.61
2023-02-18T06:24:02.623Z,98611.17
2023-02-18T06:34:27.972Z,98619.14
2023-02-18T06:44:52.191Z,98615.52
2023-02-18T06:55:16.650Z,98619.33
2023-02-18T07:05:40.858Z,98638.35
2023-02-18T07:16:06.029Z,98644.59
2023-02-18T07:26:30.291Z,98642.67
2023-02-18T07:36:54.618Z,98644.92
2023-02-18T07:47:19.843Z,98644.92
2023-02-18T07:57:57.056Z,98656.02
2023-02-18T08:08:24.623Z,98648.74
2023-02-18T08:18:49.288Z,98647.52
2023-02-18T08:29:13.647Z,98653.08
2023-02-18T08:39:39.890Z,98649.42
2023-02-18T08:50:04.767Z,98644.59
2023-02-18T09:00:29.034Z,98634.88
2023-02-18T09:10:56.555Z,98642.52
2023-02-18T09:21:22.230Z,98638.52
2023-02-18T09:31:46.806Z,98641.45
2023-02-18T09:42:17.030Z,98643.16
2023-02-18T09:52:41.394Z,98627.54
2023-02-18T10:03:12.893Z,98607.92
2023-02-18T10:13:38.241Z,98619.06
2023-02-18T10:24:06.617Z,98631.73
2023-02-18T10:34:41.336Z,98635.41
2023-02-18T10:45:18.981Z,98642.17
2023-02-18T10:55:45.703Z,98626.78
2023-02-18T11:06:20.526Z,98616.39
2023-02-18T11:16:46.964Z,98615.66
2023-02-18T11:27:14.713Z,98588.34
2023-02-18T11:37:39.078Z,98558.39
2023-02-18T11:48:08.695Z,98531.06
2023-02-18T11:58:38.796Z,98512.89
2023-02-18T12:09:08.188Z,98492.09
2023-02-18T12:19:46.948Z,98466.22
2023-02-18T12:30:28.634Z,98424.92
2023-02-18T12:41:16.359Z,98400.64
2023-02-18T12:51:54.915Z,98368.16
2023-02-18T13:02:36.237Z,98324.96
2023-02-18T13:13:08.371Z,98315.00
2023-02-18T13:23:36.219Z,98286.64
2023-02-18T13:34:06.893Z,98267.61
2023-02-18T13:45:22.538Z,98241.99
2023-02-18T13:55:53.688Z,98218.67
2023-02-18T14:06:27.362Z,98186.27
2023-02-18T14:17:28.980Z,98167.20
2023-02-18T14:27:54.574Z,98143.35
2023-02-18T14:38:40.856Z,98120.71
2023-02-18T14:49:22.337Z,98085.02
2023-02-18T14:59:47.710Z,98069.27
2023-02-18T15:10:16.193Z,98039.50
2023-02-18T15:20:40.892Z,98016.33
2023-02-18T15:31:13.174Z,97980.50
2023-02-18T15:41:39.273Z,97956.41
2023-02-18T15:52:04.483Z,97938.43
2023-02-18T16:02:29.272Z,97932.55
2023-02-18T16:12:59.741Z,97925.14
2023-02-18T16:23:34.161Z,97921.05
2023-02-18T16:33:58.628Z,97920.85
2023-02-18T16:44:22.892Z,97923.45
2023-02-18T16:54:47.864Z,97931.98
2023-02-18T17:05:26.510Z,97947.83
2023-02-18T17:15:54.260Z,97965.17
2023-02-18T17:26:22.419Z,97980.20
2023-02-18T17:36:46.727Z,97995.34
2023-02-18T17:47:10.945Z,97993.52
2023-02-18T17:57:35.285Z,97999.91
2023-02-18T18:07:59.989Z,98009.67
2023-02-18T18:18:25.461Z,98019.30
2023-02-18T18:28:49.660Z,98032.77
2023-02-18T18:39:14.498Z,98046.65
2023-02-18T18:49:39.455Z,98062.23
2023-02-18T19:00:05.588Z,98077.02
2023-02-18T19:10:39.387Z,98083.25
2023-02-18T19:21:04.718Z,98096.19
2023-02-18T19:31:29.037Z,98107.36
2023-02-18T19:41:53.497Z,98115.30
2023-02-18T19:52:19.639Z,98124.52
2023-02-18T20:02:44.283Z,98129.07
2023-02-18T20:13:10.907Z,98137.08
2023-02-18T20:23:35.233Z,98144.34
2023-02-18T20:33:59.820Z,98149.10
2023-02-18T20:44:25.388Z,98168.77
2023-02-18T20:54:49.648Z,98173.41
2023-02-18T21:05:14.078Z,98189.85
2023-02-18T21:15:38.524Z,98208.05
2023-02-18T21:26:05.226Z,98240.54
2023-02-18T21:36:31.561Z,98276.27
2023-02-18T21:46:56.500Z,98302.05
2023-02-18T21:57:21.859Z,98310.58
2023-02-18T22:07:46.186Z,98325.30
2023-02-18T22:18:10.521Z,98337.81
2023-02-18T22:28:35.579Z,98353.95
2023-02-18T22:39:00.922Z,98363.32
2023-02-18T22:49:25.971Z,98375.48
2023-02-18T22:59:51.364Z,98393.52
2023-02-18T23:10:16.655Z,98397.39
2023-02-18T23:20:59.665Z,98417.48
2023-02-18T23:31:27.538Z,98435.66
2023-02-18T23:41:53.147Z,98444.86
2023-02-18T23:52:17.996Z,98453.33
